aviador You're here:

ZWWW Decoded Metar

URUMQI in CHINA
Report Time2017-06-25 13:30:00
UTC Time2017-06-25 13:46:30
Flight Rules vfr VFR
Wind300° at 6 kt
W.Decomp.*RWY 25: 4.1 kt HW 4.4 kt RCW
W.Rank300° ranks 11
Current wind is above 300° avg. (5.3)
Visibility9999 m
Phenomena:N/A
Clouds:N/A
Expected CloudBase > 6,800 ft AGL from Temp-Dew spread
CeilingNone
Temp29°C (ISA +18)
Dew Point12°C (35% RH)
Heat Index28.2°C
AAT27.5°C
QNH1008 hPa
Density Alt4,593 ft
Elevation2,146 ft
Report Wrong Elevation
Raw Report
ZWWW 251330Z 30003MPS 260V340 CAVOK 29/12 Q1008 NOSIG=

Extra information for ZWWW:More info

Metar Taf Metar & Taf Last 4 Metars F.Rules Stats Wind Profile Meteogram Temp Stats Airport Information Weather charts Add Link Nearby VenuesMetar ALERT Operation Metar Decoded Social comments